createdAt,value
2018-05-11T00:01:21.063Z,75.90
2018-05-11T00:06:23.515Z,75.80
2018-05-11T00:11:25.968Z,75.60
2018-05-11T00:16:28.445Z,75.50
2018-05-11T00:21:30.937Z,75.60
2018-05-11T00:26:33.401Z,75.80
2018-05-11T00:31:36.623Z,76.10
2018-05-11T00:36:39.961Z,76.10
2018-05-11T00:41:42.409Z,75.90
2018-05-11T00:46:53.050Z,76.00
2018-05-11T00:51:55.498Z,76.20
2018-05-11T00:56:58.718Z,76.20
2018-05-11T01:02:01.955Z,76.40
2018-05-11T01:07:04.449Z,76.30
2018-05-11T01:12:06.900Z,76.30
2018-05-11T01:17:09.349Z,76.30
2018-05-11T01:22:11.802Z,76.40
2018-05-11T01:27:15.033Z,76.70
2018-05-11T01:32:17.487Z,76.60
2018-05-11T01:37:19.954Z,76.80
2018-05-11T01:42:22.410Z,76.60
2018-05-11T01:47:24.873Z,76.60
2018-05-11T01:52:28.097Z,76.60
2018-05-11T01:57:30.544Z,76.40
2018-05-11T02:02:33.089Z,76.20
2018-05-11T02:07:35.558Z,76.10
2018-05-11T02:12:38.788Z,75.50
2018-05-11T02:17:42.012Z,75.20
2018-05-11T02:22:44.448Z,75.20
2018-05-11T02:27:46.910Z,75.00
2018-05-11T02:32:49.370Z,74.90
2018-05-11T02:37:52.600Z,74.90
2018-05-11T02:42:55.056Z,74.70
2018-05-11T02:47:57.508Z,74.80
2018-05-11T02:52:59.971Z,75.20
2018-05-11T02:58:02.431Z,74.70
2018-05-11T03:03:05.657Z,75.30
2018-05-11T03:08:08.889Z,74.50
2018-05-11T03:13:11.362Z,74.40
2018-05-11T03:18:31.127Z,74.60
2018-05-11T03:23:34.286Z,74.60
2018-05-11T03:28:36.838Z,74.50
2018-05-11T03:33:39.337Z,74.90
2018-05-11T03:38:57.717Z,74.70
2018-05-11T03:44:00.939Z,74.80
2018-05-11T03:49:07.498Z,74.90
2018-05-11T03:54:10.029Z,74.80
2018-05-11T03:59:15.015Z,75.10
2018-05-11T04:04:29.413Z,74.80
2018-05-11T04:09:31.849Z,74.60
2018-05-11T04:14:34.301Z,74.80
2018-05-11T04:19:36.769Z,74.80
2018-05-11T04:24:39.273Z,75.00
2018-05-11T04:29:41.717Z,74.80
2018-05-11T04:34:44.185Z,74.90
2018-05-11T04:39:47.405Z,75.40
2018-05-11T04:44:50.638Z,75.10
2018-05-11T04:49:53.083Z,74.90
2018-05-11T04:54:55.549Z,74.90
2018-05-11T04:59:58.005Z,75.00
2018-05-11T05:05:00.455Z,75.30
2018-05-11T05:10:03.000Z,75.10
2018-05-11T05:15:05.445Z,75.00
2018-05-11T05:20:07.979Z,75.20
2018-05-11T05:25:10.543Z,74.70
2018-05-11T05:30:13.753Z,75.80
2018-05-11T05:35:16.998Z,75.60
2018-05-11T05:40:19.452Z,75.50
2018-05-11T05:45:21.921Z,75.60
2018-05-11T05:50:24.478Z,75.90
2018-05-11T05:55:26.964Z,76.00
2018-05-11T06:00:29.475Z,75.80
2018-05-11T06:05:32.104Z,75.90
2018-05-11T06:10:34.559Z,75.70
2018-05-11T06:15:37.102Z,75.80
2018-05-11T06:20:39.566Z,75.40
2018-05-11T06:25:42.030Z,75.60
2018-05-11T06:30:44.473Z,75.90
2018-05-11T06:35:47.710Z,75.40
2018-05-11T06:40:51.063Z,75.70
2018-05-11T06:45:53.542Z,75.50
2018-05-11T06:50:56.092Z,75.60
2018-05-11T06:55:58.656Z,75.70
2018-05-11T07:01:01.084Z,75.40
2018-05-11T07:06:03.544Z,75.40
2018-05-11T07:11:05.999Z,75.00
2018-05-11T07:16:08.504Z,74.70
2018-05-11T07:21:11.080Z,74.50
2018-05-11T07:26:14.296Z,74.50
2018-05-11T07:31:16.842Z,74.40
2018-05-11T07:36:19.295Z,74.30
2018-05-11T07:41:22.596Z,73.80
2018-05-11T07:46:25.880Z,73.60
2018-05-11T07:51:28.348Z,72.70
2018-05-11T07:56:30.795Z,71.60
2018-05-11T08:01:33.244Z,71.20
2018-05-11T08:06:35.689Z,70.60
2018-05-11T08:11:38.147Z,69.30
2018-05-11T08:16:41.373Z,68.50
2018-05-11T08:21:44.592Z,68.40
2018-05-11T08:26:47.220Z,68.40
2018-05-11T08:31:49.504Z,68.80
2018-05-11T08:36:51.949Z,67.50
2018-05-11T08:41:55.179Z,66.80
2018-05-11T08:46:57.752Z,66.80
2018-05-11T08:52:01.110Z,66.50
2018-05-11T08:57:08.716Z,66.40
2018-05-11T09:02:12.035Z,66.30
2018-05-11T09:07:14.501Z,66.20
2018-05-11T09:12:17.102Z,66.20
2018-05-11T09:17:20.422Z,65.00
2018-05-11T09:22:23.977Z,64.90
2018-05-11T09:27:27.149Z,65.20
2018-05-11T09:32:30.042Z,63.70
2018-05-11T09:37:33.269Z,63.80
2018-05-11T09:42:35.838Z,63.70
2018-05-11T09:47:39.097Z,62.60
2018-05-11T09:52:41.537Z,62.60
2018-05-11T09:57:44.765Z,62.00
2018-05-11T10:02:47.313Z,61.90
2018-05-11T10:07:50.592Z,60.70
2018-05-11T10:12:53.014Z,60.50
2018-05-11T10:17:55.712Z,60.10
2018-05-11T10:22:58.290Z,58.50
2018-05-11T10:28:00.802Z,58.70
2018-05-11T10:33:03.243Z,59.00
2018-05-11T10:38:05.700Z,58.50
2018-05-11T10:43:08.641Z,58.50
2018-05-11T10:48:11.122Z,56.70
2018-05-11T10:53:13.656Z,56.80
2018-05-11T10:58:16.101Z,56.40
2018-05-11T11:03:21.671Z,55.30
2018-05-11T11:08:24.913Z,54.80
2018-05-11T11:13:27.382Z,54.80
2018-05-11T11:18:30.592Z,55.50
2018-05-11T11:23:33.039Z,55.50
2018-05-11T11:28:36.307Z,54.70
2018-05-11T11:33:38.757Z,54.50
2018-05-11T11:38:41.982Z,54.30
2018-05-11T11:43:45.304Z,53.20
2018-05-11T11:48:48.509Z,52.80
2018-05-11T11:53:51.720Z,53.00
2018-05-11T11:58:55.097Z,51.70
2018-05-11T12:03:58.433Z,51.70
2018-05-11T12:09:01.960Z,52.20
2018-05-11T12:14:04.292Z,52.10
2018-05-11T12:19:06.758Z,52.70
2018-05-11T12:24:09.216Z,51.80
2018-05-11T12:29:12.638Z,51.10
2018-05-11T12:39:25.661Z,50.80
2018-05-11T12:44:28.110Z,51.00
2018-05-11T12:49:31.322Z,50.40
2018-05-11T12:54:34.558Z,50.80
2018-05-11T12:59:36.989Z,50.70
2018-05-11T13:04:39.437Z,50.20
2018-05-11T13:09:41.878Z,50.20
2018-05-11T13:14:44.322Z,48.40
2018-05-11T13:19:46.776Z,48.00
2018-05-11T13:24:49.217Z,47.30
2018-05-11T13:29:52.828Z,46.80
2018-05-11T13:34:55.430Z,46.00
2018-05-11T13:39:57.861Z,45.70
2018-05-11T13:45:00.310Z,44.30
2018-05-11T13:50:02.797Z,43.20
2018-05-11T13:55:05.267Z,42.30
2018-05-11T14:00:07.708Z,41.90
2018-05-11T14:05:10.157Z,42.00
2018-05-11T14:10:21.859Z,42.10
2018-05-11T14:15:24.288Z,41.50
2018-05-11T14:20:26.739Z,43.00
2018-05-11T14:25:29.957Z,44.60
2018-05-11T14:30:33.190Z,44.70
2018-05-11T14:35:35.681Z,44.60
2018-05-11T14:40:38.219Z,44.30
2018-05-11T14:45:40.658Z,44.50
2018-05-11T14:50:43.881Z,44.40
2018-05-11T14:55:46.313Z,44.40
2018-05-11T15:00:48.943Z,43.80
2018-05-11T15:05:51.449Z,43.60
2018-05-11T15:10:54.653Z,44.90
2018-05-11T15:15:57.938Z,45.20
2018-05-11T15:21:00.399Z,45.00
2018-05-11T15:26:02.854Z,44.10
2018-05-11T15:31:06.097Z,43.40
2018-05-11T15:36:09.256Z,43.50
2018-05-11T15:41:11.707Z,43.50
2018-05-11T15:46:14.175Z,43.30
2018-05-11T15:51:16.673Z,42.80
2018-05-11T15:56:19.257Z,43.30
2018-05-11T16:01:21.707Z,43.50
2018-05-11T16:06:24.913Z,43.30
2018-05-11T16:11:27.359Z,43.30
2018-05-11T16:16:43.787Z,43.30
2018-05-11T16:21:46.233Z,43.40
2018-05-11T16:26:48.697Z,43.40
2018-05-11T16:31:51.143Z,43.70
2018-05-11T16:42:26.214Z,43.20
2018-05-11T16:47:28.677Z,42.60
2018-05-11T16:52:31.118Z,43.10
2018-05-11T16:57:33.574Z,43.20
2018-05-11T17:02:36.010Z,44.40
2018-05-11T17:07:38.462Z,44.00
2018-05-11T17:12:41.678Z,45.50
2018-05-11T17:17:45.668Z,45.50
2018-05-11T17:22:48.233Z,45.90
2018-05-11T17:27:50.577Z,47.20
2018-05-11T17:32:53.018Z,47.60
2018-05-11T17:37:55.471Z,48.10
2018-05-11T17:42:57.915Z,48.40
2018-05-11T17:48:00.353Z,49.00
2018-05-11T17:53:02.806Z,49.20
2018-05-11T17:58:05.258Z,49.60
2018-05-11T18:03:08.476Z,50.50
2018-05-11T18:08:11.781Z,51.10
2018-05-11T18:13:14.200Z,51.00
2018-05-11T18:18:16.658Z,51.50
2018-05-11T18:23:21.466Z,52.30
2018-05-11T18:28:24.073Z,52.30
2018-05-11T18:33:28.118Z,52.80
2018-05-11T18:38:32.068Z,53.20
2018-05-11T18:43:35.286Z,53.60
2018-05-11T18:48:37.733Z,53.40
2018-05-11T18:53:40.553Z,53.80
2018-05-11T18:58:42.657Z,54.30
2018-05-11T19:03:45.874Z,54.70
2018-05-11T19:08:48.330Z,54.70
2018-05-11T19:13:50.764Z,55.20
2018-05-11T19:18:53.252Z,55.50
2018-05-11T19:29:23.957Z,56.10
2018-05-11T19:34:26.386Z,56.40
2018-05-11T19:39:28.938Z,56.70
2018-05-11T19:44:31.704Z,57.10
2018-05-11T19:49:34.314Z,57.40
2018-05-11T19:54:38.411Z,57.70
2018-05-11T19:59:40.866Z,58.10
2018-05-11T20:04:43.342Z,58.10
2018-05-11T20:09:45.760Z,58.40
2018-05-11T20:14:48.204Z,58.70
2018-05-11T20:19:51.670Z,59.00
2018-05-11T20:30:01.893Z,59.00
2018-05-11T20:35:04.342Z,59.40
2018-05-11T20:40:07.573Z,60.10
2018-05-11T20:45:10.019Z,60.10
2018-05-11T20:50:30.726Z,60.30
2018-05-11T20:55:33.166Z,60.50
2018-05-11T21:00:56.422Z,60.70
2018-05-11T21:05:59.638Z,61.20
2018-05-11T21:11:02.852Z,61.30
2018-05-11T21:16:06.144Z,61.60
2018-05-11T21:21:08.633Z,61.40
2018-05-11T21:26:11.088Z,61.70
2018-05-11T21:31:13.530Z,62.10
2018-05-11T21:36:16.745Z,62.60
2018-05-11T21:41:19.955Z,62.90
2018-05-11T21:46:23.346Z,62.90
2018-05-11T21:51:25.778Z,62.70
2018-05-11T21:56:28.333Z,62.90
2018-05-11T22:01:30.765Z,62.90
2018-05-11T22:06:33.219Z,63.00
2018-05-11T22:11:35.662Z,63.10
2018-05-11T22:16:38.116Z,63.20
2018-05-11T22:21:41.330Z,64.10
2018-05-11T22:26:44.557Z,63.40
2018-05-11T22:31:47.006Z,63.30
2018-05-11T22:36:49.462Z,63.40
2018-05-11T22:41:51.937Z,63.30
2018-05-11T22:46:54.583Z,63.40
2018-05-11T22:51:57.017Z,63.40
2018-05-11T22:56:59.467Z,63.50
2018-05-11T23:02:02.458Z,63.60
2018-05-11T23:07:04.915Z,63.40
2018-05-11T23:12:08.161Z,63.30
2018-05-11T23:17:31.478Z,63.30
2018-05-11T23:22:35.458Z,63.50
2018-05-11T23:27:38.035Z,63.40
2018-05-11T23:32:56.698Z,63.30
2018-05-11T23:37:59.137Z,63.30
2018-05-11T23:43:01.618Z,63.60
2018-05-11T23:48:04.063Z,63.70
2018-05-11T23:53:07.392Z,64.00
2018-05-11T23:58:09.850Z,63.70
